Time;durP1;ratioP1;P1;durP2;ratioP2;P2;SDS_P1;SDS_P2;PMS_P1;PMS_P2;Temp;Humidity;BMP_temperature;BMP_pressure;BME280_temperature;BME280_humidity;BME280_pressure;Samples;Min_cycle;Max_cycle;Signal;HPM_P1;HPM_P2
2022/11/24 00:01:17;;;;;;;17.67;3.70;;;7.80;99.90;;;;;;5050128;28;20108;-55
2022/11/24 00:03:44;;;;;;;18.23;3.30;;;7.80;99.90;;;;;;5050354;28;20385;-53
2022/11/24 00:06:13;;;;;;;19.37;2.97;;;7.90;99.90;;;;;;5049832;28;20033;-55
2022/11/24 00:08:40;;;;;;;18.53;3.73;;;7.90;99.90;;;;;;5049715;28;20033;-56
2022/11/24 00:11:09;;;;;;;20.40;3.13;;;7.80;99.90;;;;;;5049817;28;20029;-52
2022/11/24 00:13:37;;;;;;;17.73;3.77;;;7.90;99.90;;;;;;5050062;28;20063;-56
2022/11/24 00:16:16;;;;;;;15.35;3.40;;;7.80;99.90;;;;;;5049771;28;20124;-57
2022/11/24 00:18:44;;;;;;;19.08;3.95;;;7.80;99.90;;;;;;5049646;28;20036;-57
2022/11/24 00:21:10;;;;;;;22.17;3.70;;;7.80;99.90;;;;;;5049735;28;20025;-55
2022/11/24 00:23:36;;;;;;;18.37;3.20;;;7.80;99.90;;;;;;5035251;28;20040;-55
2022/11/24 00:26:04;;;;;;;21.10;3.63;;;7.80;99.90;;;;;;5053392;28;20429;-55
2022/11/24 00:28:31;;;;;;;16.70;3.13;;;7.80;99.90;;;;;;5053296;28;20394;-56
2022/11/24 00:30:57;;;;;;;15.47;3.87;;;7.80;99.90;;;;;;5053594;28;20110;-54
2022/11/24 00:33:22;;;;;;;17.93;3.37;;;7.80;99.90;;;;;;5053513;28;20501;-55
2022/11/24 00:35:58;;;;;;;17.87;3.53;;;7.80;99.90;;;;;;5053440;28;20052;-55
2022/11/24 00:38:24;;;;;;;19.93;3.00;;;7.80;99.90;;;;;;5053004;28;20034;-53
2022/11/24 00:40:51;;;;;;;22.20;2.93;;;7.70;99.90;;;;;;5053115;28;20107;-56
2022/11/24 00:43:17;;;;;;;17.27;3.40;;;7.80;99.90;;;;;;5053192;28;20025;-55
2022/11/24 00:45:43;;;;;;;18.10;2.80;;;7.80;99.90;;;;;;5053411;28;20028;-52
2022/11/24 00:48:08;;;;;;;19.50;3.20;;;7.70;99.90;;;;;;5052692;28;20033;-55
2022/11/24 00:50:34;;;;;;;25.60;3.70;;;7.80;99.90;;;;;;5052946;28;20028;-55
2022/11/24 00:53:00;;;;;;;16.80;2.90;;;7.80;99.90;;;;;;5052953;28;20017;-57
2022/11/24 00:55:26;;;;;;;16.37;3.33;;;7.70;99.90;;;;;;5053344;28;20075;-56
2022/11/24 00:57:52;;;;;;;17.00;3.10;;;7.70;99.90;;;;;;5052720;28;20029;-54
2022/11/24 01:00:17;;;;;;;17.93;2.77;;;7.70;99.90;;;;;;5052758;28;20025;-53
2022/11/24 01:02:43;;;;;;;19.50;3.17;;;7.70;99.90;;;;;;5052906;28;20028;-56
2022/11/24 01:05:10;;;;;;;19.30;3.47;;;7.70;99.90;;;;;;5052394;28;20091;-55
2022/11/24 01:07:35;;;;;;;18.90;3.47;;;7.70;99.90;;;;;;5052180;28;20083;-54
2022/11/24 01:10:01;;;;;;;18.43;3.17;;;7.70;99.90;;;;;;5052591;28;20036;-55
2022/11/24 01:12:27;;;;;;;17.97;2.50;;;7.70;99.90;;;;;;5052806;28;20033;-56
2022/11/24 01:14:53;;;;;;;19.00;3.30;;;7.80;99.90;;;;;;5052568;28;20033;-56
2022/11/24 01:17:19;;;;;;;14.60;3.57;;;7.70;99.90;;;;;;5052273;28;20029;-55
2022/11/24 01:19:48;;;;;;;17.43;2.93;;;7.70;99.90;;;;;;5052243;28;20033;-55
2022/11/24 01:22:14;;;;;;;15.43;3.22;;;7.70;99.90;;;;;;5052497;28;20371;-55
2022/11/24 01:24:40;;;;;;;22.30;3.17;;;7.70;99.90;;;;;;5052434;28;20021;-54
2022/11/24 01:27:06;;;;;;;20.73;3.57;;;7.70;99.90;;;;;;5052233;28;20036;-56
2022/11/24 01:29:31;;;;;;;20.17;3.27;;;7.70;99.90;;;;;;5052172;28;20029;-54
2022/11/24 01:31:57;;;;;;;18.17;3.47;;;7.80;99.90;;;;;;5052409;28;20167;-55
2022/11/24 01:34:23;;;;;;;17.07;2.87;;;7.70;99.90;;;;;;5051997;28;20035;-54
2022/11/24 01:36:49;;;;;;;13.07;2.57;;;7.70;99.90;;;;;;5051827;28;20032;-55
2022/11/24 01:39:14;;;;;;;13.20;2.47;;;7.70;99.90;;;;;;5052058;28;20430;-56
2022/11/24 01:41:40;;;;;;;21.70;3.57;;;7.80;99.90;;;;;;5052254;28;20055;-56
2022/11/24 01:44:28;;;;;;;27.60;3.47;;;7.90;99.90;;;;;;5052170;28;20035;-54
2022/11/24 01:47:40;;;;;;;19.47;2.90;;;8.00;99.90;;;;;;5051788;28;20036;-55
2022/11/24 01:50:12;;;;;;;13.50;2.50;;;8.00;99.90;;;;;;5049848;28;20076;-54
2022/11/24 01:52:50;;;;;;;14.30;2.77;;;8.00;99.90;;;;;;5052126;28;20056;-54
2022/11/24 01:55:33;;;;;;;16.13;3.07;;;8.00;99.90;;;;;;5052235;28;20116;-52
2022/11/24 01:58:07;;;;;;;23.33;3.10;;;8.00;99.90;;;;;;5034242;28;20064;-54
2022/11/24 02:00:37;;;;;;;15.43;3.33;;;8.00;99.90;;;;;;5052058;28;20060;-55
2022/11/24 02:03:02;;;;;;;;;;;8.10;99.90;;;;;;5052480;28;20474;-55
2022/11/24 02:05:46;;;;;;;16.37;2.70;;;8.00;99.90;;;;;;5051975;28;19909;-55
2022/11/24 02:08:29;;;;;;;17.97;2.50;;;8.10;99.90;;;;;;5051996;28;20029;-56
2022/11/24 02:10:56;;;;;;;17.80;3.10;;;8.00;99.90;;;;;;5052024;28;20037;-53
2022/11/24 02:13:22;;;;;;;20.23;3.53;;;8.10;99.90;;;;;;5051879;28;20029;-54
2022/11/24 02:15:47;;;;;;;18.97;3.20;;;8.00;99.90;;;;;;5051899;28;20422;-55
2022/11/24 02:18:13;;;;;;;18.53;2.93;;;8.00;99.90;;;;;;5051453;28;20130;-55
2022/11/24 02:20:39;;;;;;;18.60;3.33;;;8.00;99.90;;;;;;5051533;28;20485;-55
2022/11/24 02:23:28;;;;;;;16.90;2.73;;;8.00;99.90;;;;;;5051644;28;20033;-56
2022/11/24 02:26:24;;;;;;;18.40;3.30;;;7.90;99.90;;;;;;5051580;28;20035;-53
2022/11/24 02:28:51;;;;;;;18.97;3.00;;;8.00;99.90;;;;;;5051126;28;20036;-55
2022/11/24 02:31:17;;;;;;;19.27;3.53;;;8.00;99.90;;;;;;5051351;28;20033;-55
2022/11/24 02:33:43;;;;;;;17.10;3.00;;;8.00;99.90;;;;;;5051424;28;20049;-54
2022/11/24 02:36:09;;;;;;;16.67;3.33;;;8.10;99.90;;;;;;5051227;28;20053;-55
2022/11/24 02:38:35;;;;;;;17.77;3.10;;;8.10;99.90;;;;;;5050910;28;20130;-54
2022/11/24 02:41:07;;;;;;;16.97;2.87;;;8.10;99.90;;;;;;5051032;28;20025;-55
2022/11/24 02:43:45;;;;;;;14.80;2.63;;;8.10;99.90;;;;;;5051126;28;20033;-54
2022/11/24 02:46:11;;;;;;;18.47;3.33;;;8.10;99.90;;;;;;5050058;28;20076;-56
2022/11/24 02:48:37;;;;;;;15.07;2.73;;;8.10;99.90;;;;;;5050779;28;20048;-55
2022/11/24 02:51:03;;;;;;;15.87;2.70;;;8.10;99.90;;;;;;5050760;28;20532;-54
2022/11/24 02:53:29;;;;;;;17.90;3.20;;;8.10;99.90;;;;;;5050947;28;20033;-52
2022/11/24 02:55:55;;;;;;;18.67;2.87;;;8.20;99.90;;;;;;5050743;28;20773;-53
2022/11/24 02:58:21;;;;;;;15.33;2.90;;;8.20;99.90;;;;;;5050612;28;20063;-52
2022/11/24 03:00:47;;;;;;;19.67;3.03;;;8.20;99.90;;;;;;5032674;28;20123;-54
2022/11/24 03:03:13;;;;;;;20.20;3.80;;;8.20;99.90;;;;;;5050819;28;20033;-52
2022/11/24 03:05:39;;;;;;;22.90;3.20;;;8.20;99.90;;;;;;5050786;28;20035;-51
2022/11/24 03:08:05;;;;;;;19.37;2.83;;;8.30;99.90;;;;;;5050470;28;20037;-52
2022/11/24 03:10:31;;;;;;;16.13;2.70;;;8.30;99.90;;;;;;5050306;28;20072;-54
2022/11/24 03:12:57;;;;;;;18.93;3.27;;;8.30;99.90;;;;;;5050562;28;20029;-52
2022/11/24 03:15:23;;;;;;;16.07;2.57;;;8.40;99.90;;;;;;5050614;28;20402;-51
2022/11/24 03:17:49;;;;;;;17.07;3.20;;;8.30;99.90;;;;;;5050286;28;20036;-52
2022/11/24 03:20:15;;;;;;;20.10;3.13;;;8.40;99.90;;;;;;5050329;28;20094;-55
2022/11/24 03:22:41;;;;;;;17.50;3.27;;;8.40;99.90;;;;;;5050423;28;20124;-53
2022/11/24 03:25:07;;;;;;;22.73;3.70;;;8.30;99.90;;;;;;5050467;28;20107;-51
2022/11/24 03:27:33;;;;;;;16.77;3.17;;;8.40;99.90;;;;;;5050140;28;20032;-51
2022/11/24 03:29:58;;;;;;;21.97;3.50;;;8.40;99.90;;;;;;5050297;28;20035;-51
2022/11/24 03:32:24;;;;;;;14.47;3.10;;;8.40;99.90;;;;;;5050414;28;20040;-52
2022/11/24 03:34:50;;;;;;;14.67;3.60;;;8.30;99.90;;;;;;5050466;28;20033;-53
2022/11/24 03:37:16;;;;;;;22.17;3.37;;;8.30;99.90;;;;;;5050050;28;20028;-54
2022/11/24 03:39:41;;;;;;;15.70;3.30;;;8.30;99.90;;;;;;5050032;28;20032;-53
2022/11/24 03:42:07;;;;;;;19.10;3.73;;;8.30;99.90;;;;;;5050514;28;20025;-52
2022/11/24 03:44:33;;;;;;;21.00;3.63;;;8.30;99.90;;;;;;5050168;28;20485;-52
2022/11/24 03:46:58;;;;;;;23.10;3.07;;;8.30;99.90;;;;;;5049924;28;20048;-53
2022/11/24 03:49:24;;;;;;;16.47;3.00;;;8.30;99.90;;;;;;5050002;28;20037;-54
2022/11/24 03:51:50;;;;;;;21.83;3.13;;;8.30;99.90;;;;;;5050266;28;20036;-52
2022/11/24 03:54:15;;;;;;;19.27;3.30;;;8.30;99.90;;;;;;5050111;28;20429;-53
2022/11/24 03:56:41;;;;;;;15.00;2.47;;;8.40;99.90;;;;;;5051801;28;20040;-53
2022/11/24 03:59:07;;;;;;;24.30;3.20;;;8.40;99.90;;;;;;5053914;28;20078;-54
2022/11/24 04:01:33;;;;;;;18.53;2.87;;;8.40;99.90;;;;;;5054116;28;20029;-50
2022/11/24 04:03:59;;;;;;;18.97;3.03;;;8.40;99.90;;;;;;5054030;28;20057;-52
2022/11/24 04:06:25;;;;;;;16.10;3.70;;;8.40;99.90;;;;;;5053809;28;20059;-51
2022/11/24 04:08:51;;;;;;;21.73;3.27;;;8.40;99.90;;;;;;5053724;28;20383;-52
2022/11/24 04:14:00;;;;;;;21.47;3.10;;;8.40;99.90;;;;;;5053911;28;20439;-53
2022/11/24 04:16:26;;;;;;;22.07;3.37;;;8.50;99.90;;;;;;5053248;28;20033;-53
2022/11/24 04:18:52;;;;;;;24.30;3.40;;;8.50;99.90;;;;;;5054313;28;20069;-52
2022/11/24 04:21:18;;;;;;;22.77;3.33;;;8.50;99.90;;;;;;5039772;28;20083;-55
2022/11/24 04:23:44;;;;;;;13.17;3.17;;;8.60;99.90;;;;;;5046296;28;20024;-54
2022/11/24 04:26:10;;;;;;;20.83;2.83;;;8.60;99.90;;;;;;5050509;28;20025;-55
2022/11/24 04:28:36;;;;;;;19.47;3.03;;;8.70;99.90;;;;;;5052012;28;20534;-50
2022/11/24 04:31:02;;;;;;;25.33;3.07;;;8.70;99.90;;;;;;5051943;28;20025;-51
2022/11/24 04:33:28;;;;;;;15.60;2.70;;;8.70;99.90;;;;;;5051880;28;20044;-53
2022/11/24 04:35:54;;;;;;;24.87;3.50;;;8.70;99.90;;;;;;5033771;28;20112;-51
2022/11/24 04:38:19;;;;;;;21.63;3.47;;;8.80;99.90;;;;;;5051245;28;20029;-51
2022/11/24 04:40:45;;;;;;;26.27;3.57;;;8.90;99.90;;;;;;5051662;28;20031;-51
2022/11/24 04:43:11;;;;;;;19.47;3.47;;;8.80;99.90;;;;;;5051770;28;20096;-53
2022/11/24 04:45:37;;;;;;;23.60;3.50;;;8.80;99.90;;;;;;5051654;28;20068;-53
2022/11/24 04:48:03;;;;;;;22.47;3.30;;;8.90;99.90;;;;;;5051375;28;20090;-54
2022/11/24 04:50:29;;;;;;;17.67;3.00;;;8.90;99.90;;;;;;5051101;28;20060;-55
2022/11/24 04:52:55;;;;;;;17.73;3.20;;;8.90;99.90;;;;;;5051829;28;20029;-52
2022/11/24 04:55:20;;;;;;;23.17;3.80;;;8.90;99.90;;;;;;5051052;28;20039;-54
2022/11/24 04:57:46;;;;;;;25.77;3.93;;;8.90;99.90;;;;;;5051484;28;20052;-52
2022/11/24 05:00:12;;;;;;;29.07;3.63;;;8.90;99.90;;;;;;5051315;28;20029;-53
2022/11/24 05:02:38;;;;;;;24.57;3.50;;;8.90;99.90;;;;;;5051525;28;20469;-50
2022/11/24 05:05:05;;;;;;;19.53;3.40;;;9.00;99.90;;;;;;5050837;28;20025;-50
2022/11/24 05:07:31;;;;;;;25.10;3.40;;;8.90;99.90;;;;;;5050454;28;20029;-52
2022/11/24 05:12:41;;;;;;;17.50;3.00;;;9.00;99.90;;;;;;5051500;28;20040;-55
2022/11/24 05:15:07;;;;;;;20.53;3.67;;;8.90;99.90;;;;;;5051293;28;20029;-51
2022/11/24 05:17:36;;;;;;;19.47;3.50;;;8.90;99.90;;;;;;5050719;28;20086;-55
2022/11/24 05:20:04;;;;;;;20.92;3.78;;;8.90;99.90;;;;;;5050673;28;20063;-55
2022/11/24 05:22:30;;;;;;;21.53;3.27;;;8.90;99.90;;;;;;5051304;28;20025;-54
2022/11/24 05:24:56;;;;;;;24.57;3.20;;;8.90;99.90;;;;;;5050185;28;20044;-54
2022/11/24 05:27:22;;;;;;;20.53;3.17;;;8.90;99.90;;;;;;5050121;28;20025;-54
2022/11/24 05:29:48;;;;;;;20.93;3.27;;;8.90;99.90;;;;;;5050550;28;20539;-54
2022/11/24 05:32:14;;;;;;;20.77;3.63;;;8.90;99.90;;;;;;5041512;28;20064;-55
2022/11/24 05:34:39;;;;;;;25.67;3.87;;;8.90;99.90;;;;;;5050344;28;20040;-57
2022/11/24 05:37:05;;;;;;;24.53;3.30;;;8.90;99.90;;;;;;5050896;28;20037;-53
2022/11/24 05:39:32;;;;;;;23.73;3.50;;;8.90;99.90;;;;;;5049664;28;20040;-52
2022/11/24 05:42:38;;;;;;;19.27;3.17;;;8.90;99.90;;;;;;5048292;28;20426;-50
2022/11/24 05:44:45;;;;;;;23.10;3.57;;;8.90;99.90;;;;;;5048687;28;20815;-51
2022/11/24 05:47:11;;;;;;;19.97;3.33;;;8.90;99.90;;;;;;5046725;22;20053;-53
2022/11/24 05:49:37;;;;;;;20.20;3.37;;;8.90;99.90;;;;;;5008083;28;20123;-52
2022/11/24 05:52:02;;;;;;;25.20;3.67;;;8.90;99.90;;;;;;5011126;28;20040;-49
2022/11/24 05:54:28;;;;;;;26.37;4.37;;;9.00;99.90;;;;;;5009873;28;20029;-48
2022/11/24 05:56:55;;;;;;;21.03;3.00;;;8.90;99.90;;;;;;5010526;28;20222;-49
2022/11/24 05:59:20;;;;;;;25.53;3.57;;;8.90;99.90;;;;;;5010221;28;20474;-49
2022/11/24 06:01:46;;;;;;;22.30;4.43;;;8.80;99.90;;;;;;5010798;28;20069;-49
2022/11/24 06:04:12;;;;;;;26.90;4.10;;;8.80;99.90;;;;;;5010232;28;20117;-51
2022/11/24 06:06:38;;;;;;;18.93;3.60;;;8.90;99.90;;;;;;5010318;28;20814;-54
2022/11/24 06:09:03;;;;;;;23.03;3.30;;;8.90;99.90;;;;;;5009453;28;20199;-55
2022/11/24 06:11:29;;;;;;;21.57;3.57;;;8.90;99.90;;;;;;5010562;28;20026;-56
2022/11/24 06:13:55;;;;;;;19.60;3.70;;;8.90;99.90;;;;;;5010073;28;20037;-54
2022/11/24 06:16:21;;;;;;;30.70;6.63;;;8.90;99.90;;;;;;5010326;28;20390;-54
2022/11/24 06:18:47;;;;;;;33.93;10.17;;;9.00;99.90;;;;;;5009853;28;20030;-55
2022/11/24 06:21:12;;;;;;;22.33;3.47;;;9.00;99.90;;;;;;5009324;28;20026;-53
2022/11/24 06:23:39;;;;;;;25.37;3.90;;;9.10;99.90;;;;;;5009803;28;20518;-53
2022/11/24 06:26:05;;;;;;;25.93;4.13;;;9.00;99.90;;;;;;5009832;28;20348;-57
2022/11/24 06:28:30;;;;;;;21.40;3.10;;;9.00;99.90;;;;;;5009335;28;20047;-55
2022/11/24 06:31:00;;;;;;;22.90;3.20;;;9.00;99.90;;;;;;5010123;28;20062;-56
2022/11/24 06:33:30;;;;;;;21.23;3.40;;;8.90;99.90;;;;;;5009764;28;20571;-54
2022/11/24 06:36:05;;;;;;;23.83;3.43;;;8.80;99.90;;;;;;5009440;28;20457;-54
2022/11/24 06:38:31;;;;;;;23.33;4.00;;;8.80;99.90;;;;;;4991242;28;20473;-52
2022/11/24 06:41:05;;;;;;;27.67;4.30;;;8.80;99.90;;;;;;5009467;28;20026;-53
2022/11/24 06:43:32;;;;;;;21.07;4.10;;;8.70;99.90;;;;;;5009987;28;20026;-52
2022/11/24 06:45:58;;;;;;;24.33;4.03;;;8.70;99.90;;;;;;5009993;28;20029;-54
2022/11/24 06:48:25;;;;;;;13.57;2.70;;;8.70;99.90;;;;;;5009409;28;20120;-54
2022/11/24 06:50:51;;;;;;;21.40;3.50;;;8.70;99.90;;;;;;5009452;28;20120;-53
2022/11/24 06:53:17;;;;;;;20.17;3.00;;;8.70;99.90;;;;;;5009293;28;20424;-53
2022/11/24 06:55:48;;;;;;;22.27;3.97;;;8.70;99.90;;;;;;5008080;28;20132;-56
2022/11/24 06:58:18;;;;;;;16.87;2.93;;;8.70;99.90;;;;;;5050060;23;20044;-54
2022/11/24 07:00:44;;;;;;;24.27;3.80;;;8.70;99.90;;;;;;5049063;28;20029;-50
2022/11/24 07:03:17;;;;;;;17.77;3.37;;;8.60;99.90;;;;;;5049394;28;20488;-51
2022/11/24 07:05:43;;;;;;;13.30;2.30;;;8.60;99.90;;;;;;5048418;28;20033;-55
2022/11/24 07:08:09;;;;;;;15.93;2.47;;;8.70;99.90;;;;;;5064820;28;20059;-53
2022/11/24 07:10:35;;;;;;;16.23;3.50;;;8.70;99.90;;;;;;5068485;28;20028;-55
2022/11/24 07:13:02;;;;;;;12.47;2.43;;;8.80;99.90;;;;;;5069100;28;20341;-51
2022/11/24 07:15:29;;;;;;;13.80;2.70;;;8.80;99.90;;;;;;5066150;28;20024;-52
2022/11/24 07:17:55;;;;;;;16.00;2.43;;;8.80;99.90;;;;;;5068386;28;20028;-52
2022/11/24 07:20:21;;;;;;;15.40;2.63;;;8.80;99.90;;;;;;5068540;28;20036;-54
2022/11/24 07:22:46;;;;;;;9.37;2.57;;;8.90;99.90;;;;;;5069103;28;20035;-53
2022/11/24 07:25:13;;;;;;;8.30;2.03;;;8.90;99.90;;;;;;5068140;28;20503;-45
2022/11/24 07:27:39;;;;;;;14.00;2.70;;;8.90;99.90;;;;;;5068955;28;20039;-46
2022/11/24 07:30:07;;;;;;;15.77;2.70;;;8.90;99.90;;;;;;5068556;28;20075;-53
2022/11/24 07:32:33;;;;;;;13.77;2.20;;;9.00;99.90;;;;;;5068715;28;20476;-53
2022/11/24 07:34:59;;;;;;;7.03;2.03;;;9.00;99.90;;;;;;5068358;28;20056;-50
2022/11/24 07:37:25;;;;;;;10.80;3.30;;;9.00;99.90;;;;;;5068648;28;20040;-54
2022/11/24 07:39:51;;;;;;;10.07;1.60;;;9.00;99.90;;;;;;5067722;28;20067;-55
2022/11/24 07:42:16;;;;;;;10.00;1.80;;;8.90;99.90;;;;;;5069403;28;20091;-53
2022/11/24 07:44:42;;;;;;;11.60;2.60;;;9.00;99.90;;;;;;5069110;28;20032;-53
2022/11/24 07:47:08;;;;;;;10.30;2.57;;;9.00;99.90;;;;;;5069002;28;20393;-51
2022/11/24 07:49:33;;;;;;;9.47;2.10;;;9.10;99.90;;;;;;5067975;28;20036;-55
2022/11/24 07:51:59;;;;;;;9.43;2.30;;;9.00;99.90;;;;;;5069208;28;20032;-58
2022/11/24 07:54:25;;;;;;;9.83;2.47;;;9.20;99.90;;;;;;5067931;28;20036;-56
2022/11/24 07:56:51;;;;;;;6.33;2.27;;;9.20;99.90;;;;;;5068318;28;20147;-57
2022/11/24 07:59:17;;;;;;;9.50;2.23;;;9.30;99.90;;;;;;5068476;28;20021;-52
2022/11/24 08:01:42;;;;;;;7.27;2.17;;;9.30;99.90;;;;;;5069041;28;20070;-53
2022/11/24 08:04:08;;;;;;;7.17;2.00;;;9.30;99.90;;;;;;5068181;28;20524;-54
2022/11/24 08:06:34;;;;;;;7.60;1.70;;;9.20;99.90;;;;;;5068629;28;20041;-55
2022/11/24 08:08:59;;;;;;;4.47;1.40;;;9.20;99.90;;;;;;5067542;28;20032;-55
2022/11/24 08:11:26;;;;;;;5.80;1.47;;;9.20;99.90;;;;;;5068995;28;20111;-55
2022/11/24 08:13:52;;;;;;;4.70;1.17;;;9.20;99.90;;;;;;5067578;28;20101;-59
2022/11/24 08:16:18;;;;;;;7.90;1.60;;;9.20;99.90;;;;;;5067956;28;20037;-56
2022/11/24 08:18:49;;;;;;;7.70;1.30;;;9.20;99.90;;;;;;5067754;28;20033;-56
2022/11/24 08:21:15;;;;;;;8.23;1.73;;;9.20;99.90;;;;;;5067969;28;20017;-56
2022/11/24 08:23:41;;;;;;;7.17;1.20;;;9.20;99.90;;;;;;5067579;28;20029;-54
2022/11/24 08:26:14;;;;;;;7.70;1.23;;;9.10;99.90;;;;;;5067453;28;20033;-54
2022/11/24 08:28:40;;;;;;;6.83;1.40;;;9.10;99.90;;;;;;5067598;28;20036;-55
2022/11/24 08:31:12;;;;;;;5.53;1.20;;;9.10;99.90;;;;;;5068218;28;20036;-55
2022/11/24 08:33:39;;;;;;;9.50;1.30;;;9.10;99.90;;;;;;5068387;28;20043;-53
2022/11/24 08:36:07;;;;;;;5.87;1.30;;;9.00;99.90;;;;;;5067801;28;20541;-56
2022/11/24 08:38:33;;;;;;;7.30;1.30;;;9.00;99.90;;;;;;5067324;28;20397;-55
2022/11/24 08:41:17;;;;;;;7.23;1.50;;;9.00;99.90;;;;;;5068075;28;20024;-55
2022/11/24 08:43:43;;;;;;;7.83;1.83;;;9.00;99.90;;;;;;5069988;28;20365;-55
2022/11/24 08:46:11;;;;;;;8.43;1.80;;;9.00;99.90;;;;;;5071712;28;20056;-55
2022/11/24 08:48:37;;;;;;;9.63;1.40;;;9.00;99.90;;;;;;5071209;28;20514;-54
2022/11/24 08:51:09;;;;;;;8.87;1.90;;;9.00;99.90;;;;;;5070961;28;20024;-54
2022/11/24 08:53:34;;;;;;;7.13;1.40;;;9.00;99.90;;;;;;5071142;28;20088;-53
2022/11/24 08:56:00;;;;;;;7.87;1.47;;;9.00;99.90;;;;;;5071119;28;20406;-54
2022/11/24 08:58:27;;;;;;;8.73;2.37;;;9.00;99.90;;;;;;5070578;28;20143;-52
2022/11/24 09:00:53;;;;;;;7.00;1.20;;;9.00;99.90;;;;;;5071158;28;20111;-52
2022/11/24 09:03:19;;;;;;;6.17;1.57;;;9.00;99.90;;;;;;5071246;28;20113;-52
2022/11/24 09:05:44;;;;;;;6.67;1.50;;;9.10;99.90;;;;;;5052955;28;20025;-53
2022/11/24 09:08:10;;;;;;;13.27;2.07;;;9.10;99.90;;;;;;5070505;28;20044;-51
2022/11/24 09:10:36;;;;;;;9.27;2.00;;;9.10;99.90;;;;;;5070497;28;20039;-54
2022/11/24 09:13:02;;;;;;;7.93;1.97;;;9.20;99.90;;;;;;5071046;28;20400;-51
2022/11/24 09:15:28;;;;;;;6.87;2.03;;;9.20;99.90;;;;;;5070931;28;20039;-49
2022/11/24 09:17:54;;;;;;;10.70;1.80;;;9.20;99.90;;;;;;5069437;28;20025;-51
2022/11/24 09:20:20;;;;;;;15.67;2.60;;;9.30;99.90;;;;;;5065701;28;20052;-52
2022/11/24 09:22:46;;;;;;;10.07;1.60;;;9.30;99.90;;;;;;5069966;28;20039;-53
2022/11/24 09:25:13;;;;;;;12.43;1.77;;;9.40;99.90;;;;;;5069016;28;20115;-49
2022/11/24 09:27:39;;;;;;;10.63;2.40;;;9.40;99.90;;;;;;5068824;28;20072;-52
2022/11/24 09:30:06;;;;;;;12.37;2.03;;;9.40;99.90;;;;;;5051342;28;20060;-52
2022/11/24 09:32:31;;;;;;;9.87;1.60;;;9.40;99.90;;;;;;5069214;28;20109;-51
2022/11/24 09:34:57;;;;;;;8.43;2.00;;;9.40;99.90;;;;;;5069221;28;20037;-52
2022/11/24 09:37:23;;;;;;;28.43;12.60;;;9.40;99.90;;;;;;5069407;28;20064;-52
2022/11/24 09:39:49;;;;;;;15.30;4.23;;;9.40;99.90;;;;;;5070837;28;20028;-47
2022/11/24 09:42:43;;;;;;;14.43;4.33;;;9.40;99.90;;;;;;5074857;28;20028;-53
2022/11/24 09:45:23;;;;;;;13.80;2.20;;;9.50;99.90;;;;;;5076158;28;20039;-52
2022/11/24 09:48:36;;;;;;;11.20;2.30;;;9.50;99.90;;;;;;5069735;28;20044;-55
2022/11/24 09:51:04;;;;;;;14.37;2.23;;;9.50;99.90;;;;;;5075390;28;20056;-53
2022/11/24 09:53:29;;;;;;;8.17;1.70;;;9.50;99.90;;;;;;5069452;28;20063;-54
2022/11/24 09:55:59;;;;;;;12.17;1.90;;;9.60;99.90;;;;;;5068882;28;20029;-55
2022/11/24 09:58:47;;;;;;;13.00;2.47;;;9.70;99.90;;;;;;5074657;28;20094;-53
2022/11/24 10:01:23;;;;;;;10.30;2.23;;;9.80;99.90;;;;;;5069035;28;20131;-54
2022/11/24 10:03:53;;;;;;;11.97;2.33;;;10.00;99.90;;;;;;5084095;28;20039;-52
2022/11/24 10:06:18;;;;;;;11.60;2.03;;;10.50;99.90;;;;;;5071538;28;20467;-52
2022/11/24 10:09:11;;;;;;;10.40;1.80;;;10.80;99.90;;;;;;5079674;28;20036;-51
2022/11/24 10:12:04;;;;;;;13.63;2.40;;;10.90;99.90;;;;;;5078094;28;20097;-55
2022/11/24 10:14:36;;;;;;;12.53;2.33;;;10.90;99.90;;;;;;5063491;28;20443;-56
2022/11/24 10:17:19;;;;;;;8.93;1.80;;;10.90;99.90;;;;;;5080697;28;20058;-53
2022/11/24 10:19:53;;;;;;;10.10;2.42;;;11.40;99.90;;;;;;5084430;28;20054;-50
2022/11/24 10:22:42;;;;;;;10.88;2.13;;;12.00;99.90;;;;;;5089115;28;20387;-54
2022/11/24 10:25:27;;;;;;;12.20;2.22;;;12.20;99.90;;;;;;5074559;28;20100;-55
2022/11/24 10:28:08;;;;;;;14.07;2.10;;;12.10;99.90;;;;;;5079726;28;20391;-53
2022/11/24 10:30:34;;;;;;;10.68;2.30;;;12.10;99.90;;;;;;5084320;28;20111;-55
2022/11/24 10:33:12;;;;;;;12.50;2.80;;;11.90;99.90;;;;;;5089955;28;20058;-55
2022/11/24 10:36:02;;;;;;;10.95;2.00;;;11.80;99.90;;;;;;5089495;28;20036;-54
2022/11/24 10:38:55;;;;;;;12.30;2.30;;;11.70;99.90;;;;;;5088603;28;20036;-55
2022/11/24 10:41:40;;;;;;;11.40;1.98;;;11.80;99.90;;;;;;5089454;28;20036;-53
2022/11/24 10:44:12;;;;;;;14.85;2.05;;;11.90;99.90;;;;;;5089530;28;20031;-52
2022/11/24 10:46:38;;;;;;;14.13;2.42;;;12.00;99.90;;;;;;5088769;28;20107;-53
2022/11/24 10:49:04;;;;;;;11.32;2.30;;;12.00;99.90;;;;;;5089050;28;20172;-51
2022/11/24 10:51:30;;;;;;;9.38;2.25;;;12.20;99.90;;;;;;5089566;28;20032;-52
2022/11/24 10:54:11;;;;;;;10.07;2.08;;;12.60;99.90;;;;;;5089114;28;20035;-53
2022/11/24 10:56:41;;;;;;;9.98;2.78;;;13.10;99.90;;;;;;5088707;28;20063;-51
2022/11/24 10:59:36;;;;;;;13.98;2.55;;;13.40;99.90;;;;;;5050489;28;20025;-52
2022/11/24 11:02:22;;;;;;;10.43;2.58;;;13.50;99.90;;;;;;5068967;28;20032;-53
2022/11/24 11:04:48;;;;;;;13.32;2.95;;;13.70;99.90;;;;;;5068579;28;20036;-54
2022/11/24 11:07:22;;;;;;;12.80;2.90;;;13.90;99.90;;;;;;5068162;28;20020;-54
2022/11/24 11:09:48;;;;;;;11.15;2.38;;;14.10;99.90;;;;;;5071136;28;20028;-54
2022/11/24 11:12:22;;;;;;;11.68;2.60;;;14.30;99.90;;;;;;5071205;28;20043;-55
2022/11/24 11:14:49;;;;;;;11.95;2.72;;;14.50;99.90;;;;;;5068815;28;20385;-53
2022/11/24 11:17:37;;;;;;;11.25;2.40;;;14.60;99.90;;;;;;5068502;28;20036;-51
2022/11/24 11:20:16;;;;;;;11.38;2.60;;;14.60;99.90;;;;;;5066797;28;20044;-52
2022/11/24 11:22:45;;;;;;;11.85;2.72;;;14.70;99.90;;;;;;5066022;28;20112;-53
2022/11/24 11:25:17;;;;;;;12.20;2.40;;;14.30;99.90;;;;;;5049619;28;20111;-56
2022/11/24 11:27:43;;;;;;;13.27;2.70;;;14.30;99.90;;;;;;5068142;28;20033;-55
2022/11/24 11:30:15;;;;;;;10.48;2.30;;;14.00;99.90;;;;;;5067911;28;20025;-56
2022/11/24 11:32:53;;;;;;;13.95;2.65;;;13.70;99.90;;;;;;5068511;28;20036;-56
2022/11/24 11:35:20;;;;;;;12.50;2.75;;;13.70;99.90;;;;;;5049513;28;20408;-54
2022/11/24 11:37:48;;;;;;;14.75;2.35;;;13.70;99.90;;;;;;5068046;28;20127;-54
2022/11/24 11:40:16;;;;;;;14.95;3.00;;;13.70;99.90;;;;;;5066860;28;20047;-54
2022/11/24 11:42:55;;;;;;;9.95;2.50;;;13.90;99.90;;;;;;5066666;28;20499;-54
2022/11/24 11:45:30;;;;;;;15.57;2.40;;;13.90;99.90;;;;;;5067066;28;20036;-53
2022/11/24 11:48:03;;;;;;;13.60;2.78;;;13.90;99.90;;;;;;5073193;22;20053;-59
2022/11/24 11:50:56;;;;;;;13.45;2.55;;;13.90;99.90;;;;;;5025364;28;20061;-58
2022/11/24 11:53:43;;;;;;;13.55;2.28;;;13.80;99.90;;;;;;5027767;28;20052;-59
2022/11/24 11:56:21;;;;;;;10.80;2.63;;;13.70;99.90;;;;;;5026661;28;20041;-58
2022/11/24 11:58:55;;;;;;;14.85;2.97;;;13.20;99.90;;;;;;5028390;28;20038;-58
2022/11/24 12:01:50;;;;;;;15.32;2.72;;;13.00;99.90;;;;;;5035647;28;20370;-58
2022/11/24 12:04:49;;;;;;;14.80;2.70;;;12.80;99.90;;;;;;5036158;28;20037;-58
2022/11/24 12:07:24;;;;;;;;;;;12.70;99.90;;;;;;5022049;28;20144;-56
2022/11/24 12:10:24;;;;;;;11.38;2.75;;;12.70;99.90;;;;;;5027851;28;19959;-58
2022/11/24 12:13:02;;;;;;;13.40;2.70;;;12.60;99.90;;;;;;5024030;28;20064;-58
2022/11/24 12:15:39;;;;;;;11.57;2.35;;;12.90;99.90;;;;;;5032657;28;20064;-59
2022/11/24 12:18:36;;;;;;;14.85;2.83;;;13.20;99.90;;;;;;5042414;28;20033;-58
2022/11/24 12:21:17;;;;;;;11.80;2.63;;;13.50;99.90;;;;;;5040769;28;20025;-59
2022/11/24 12:23:59;;;;;;;16.45;3.22;;;14.00;99.90;;;;;;5029473;28;20128;-59
2022/11/24 12:26:47;;;;;;;13.43;2.70;;;14.10;99.90;;;;;;5024993;28;20036;-59
2022/11/24 12:29:24;;;;;;;14.68;3.13;;;14.70;99.90;;;;;;5048048;28;20132;-58
2022/11/24 12:32:02;;;;;;;12.23;2.72;;;15.10;99.90;;;;;;5044132;28;20033;-59
2022/11/24 12:35:18;;;;;;;13.60;3.15;;;15.30;99.90;;;;;;5037845;28;20509;-58
2022/11/24 12:38:21;;;;;;;16.13;3.08;;;15.50;99.90;;;;;;5014225;28;20041;-59
2022/11/24 12:41:23;;;;;;;15.07;3.38;;;15.30;99.90;;;;;;5049955;28;20429;-58
2022/11/24 12:43:51;;;;;;;13.75;3.25;;;15.40;99.90;;;;;;5033975;28;20033;-59
2022/11/24 12:46:22;;;;;;;14.93;3.17;;;15.30;99.90;;;;;;5038495;28;20104;-66
2022/11/24 12:49:06;;;;;;;12.85;2.45;;;14.90;99.90;;;;;;5044542;28;20037;-54
2022/11/24 12:51:36;;;;;;;11.15;2.55;;;14.50;99.90;;;;;;5049833;28;20052;-53
2022/11/24 12:54:05;;;;;;;15.43;2.33;;;14.20;99.90;;;;;;5045491;28;20056;-52
2022/11/24 12:56:56;;;;;;;16.52;2.60;;;13.90;99.90;;;;;;5032155;28;20029;-51
2022/11/24 12:59:38;;;;;;;15.65;2.38;;;13.60;99.90;;;;;;5030021;28;20041;-52
2022/11/24 13:02:15;;;;;;;15.20;3.40;;;13.40;99.90;;;;;;5031272;28;20119;-52
2022/11/24 13:05:02;;;;;;;10.70;2.95;;;13.40;99.90;;;;;;5030282;28;20478;-55
2022/11/24 13:07:43;;;;;;;15.00;2.72;;;13.10;99.90;;;;;;5032925;28;20028;-53